Grand Lake, Colorado
Current Conditions -  °F | °C
As of 3:50 AM on Friday 31 Oct 2014 (Local Time) from K0CO Reporting Station
Clear Clear  
Wind Chill: 24°   Ceiling: Unl
Heat Index: 34°   Visibility: 10mi
Dew Point: 32°   Wind: 16mph
Humidity: 93%   Direction: 280°W
Pressure: 30.52"   Gusts: 22mph
Location:  40.25°N, 105.82°W
Report Text: K0CO 310950Z AUTO 28014G19KT 10SM CLR 01/00 A3052 RMK AO2
Loading
Personal Weather Stations






























Interactive Weather Map
Tropical Storm Tracking
New forecast layout! Learn more

10-Day Weather Forecast

Advertisements
Track Severe Weather on mobile